| time (UTC) | temp C | wind direction | speed KPH | gust KPH | rain 1hr cm | rain 24hr cm | rain mn cm | humidity % | barometer mb |
| 20260503211016 | 27 | 67 | 1.6 | 11.3 | 0.00 | 0.00 | 0.00 | 41 | 1014.3 |
| 20260503210517 | 27 | 60 | 3.2 | 12.9 | 0.00 | 0.00 | 0.00 | 40 | 1014.5 |
| 20260503210032 | 27 | 250 | 3.2 | 12.9 | 0.00 | 0.00 | 0.00 | 41 | 1014.5 |
| 20260503205517 | 27 | 235 | 3.2 | 12.9 | 0.00 | 0.00 | 0.00 | 42 | 1014.6 |
| 20260503205022 | 27 | 232 | 4.8 | 12.9 | 0.00 | 0.00 | 0.00 | 42 | 1014.6 |
| 20260503204532 | 27 | 251 | 3.2 | 12.9 | 0.00 | 0.00 | 0.00 | 43 | 1014.6 |
| 20260503204016 | 27 | 250 | 3.2 | 11.3 | 0.00 | 0.00 | 0.00 | 42 | 1014.7 |
| 20260503203519 | 27 | 171 | 1.6 | 11.3 | 0.00 | 0.00 | 0.00 | 43 | 1014.8 |
| 20260503203034 | 27 | 238 | 3.2 | 11.3 | 0.00 | 0.00 | 0.00 | 43 | 1014.9 |
| 20260503202523 | 26 | 32 | 1.6 | 16.1 | 0.00 | 0.00 | 0.00 | 45 | 1015.0 |
| 20260503202016 | 26 | 207 | 3.2 | 16.1 | 0.00 | 0.00 | 0.00 | 44 | 1015.1 |
| 20260503201534 | 26 | 280 | 4.8 | 16.1 | 0.00 | 0.00 | 0.00 | 44 | 1015.1 |
| 20260503201017 | 26 | 217 | 3.2 | 12.9 | 0.00 | 0.00 | 0.00 | 45 | 1015.1 |
| 20260503200517 | 26 | 297 | 3.2 | 14.5 | 0.00 | 0.00 | 0.00 | 46 | 1015.2 |
| 20260503200034 | 26 | 213 | 3.2 | 14.5 | 0.00 | 0.00 | 0.00 | 46 | 1015.3 |
| 20260503195517 | 25 | 211 | 3.2 | 11.3 | 0.00 | 0.00 | 0.00 | 46 | 1015.4 |
| 20260503195014 | 25 | 85 | 3.2 | 6.4 | 0.00 | 0.00 | 0.00 | 47 | 1015.5 |
| 20260503194533 | 25 | 272 | 3.2 | 14.5 | 0.00 | 0.00 | 0.00 | 48 | 1015.5 |
| 20260503194017 | 25 | 275 | 1.6 | 14.5 | 0.00 | 0.00 | 0.00 | 49 | 1015.5 |
| 20260503193523 | 25 | 263 | 3.2 | 14.5 | 0.00 | 0.00 | 0.00 | 48 | 1015.6 |
| 20260503193042 | 24 | 0 | 1.6 | 16.1 | 0.00 | 0.00 | 0.00 | 49 | 1015.7 |
| 20260503192518 | 24 | 145 | 4.8 | 16.1 | 0.00 | 0.00 | 0.00 | 50 | 1015.8 |
| 20260503192022 | 24 | 81 | 3.2 | 12.9 | 0.00 | 0.00 | 0.00 | 51 | 1015.8 |
| 20260503191537 | 24 | 252 | 4.8 | 12.9 | 0.00 | 0.00 | 0.00 | 50 | 1015.9 |
| 20260503191019 | 24 | 11 | 0.0 | 11.3 | 0.00 | 0.00 | 0.00 | 52 | 1016.0 |
| 20260503190520 | 24 | 281 | 4.8 | 11.3 | 0.00 | 0.00 | 0.00 | 52 | 1015.9 |
| 20260503190037 | 23 | 211 | 4.8 | 12.9 | 0.00 | 0.00 | 0.00 | 53 | 1015.9 |
| 20260503185519 | 23 | 223 | 3.2 | 12.9 | 0.00 | 0.00 | 0.00 | 52 | 1016.0 |
| 20260503185020 | 23 | 222 | 3.2 | 11.3 | 0.00 | 0.00 | 0.00 | 53 | 1016.0 |
| 20260503184539 | 23 | 251 | 3.2 | 11.3 | 0.00 | 0.00 | 0.00 | 54 | 1016.1 |
| 20260503184019 | 23 | 240 | 4.8 | 8.0 | 0.00 | 0.00 | 0.00 | 53 | 1016.1 |
| 20260503183522 | 23 | 234 | 3.2 | 9.7 | 0.00 | 0.00 | 0.00 | 53 | 1016.2 |
| 20260503183041 | 23 | 0 | 3.2 | 11.3 | 0.00 | 0.00 | 0.00 | 54 | 1016.2 |
| 20260503182518 | 23 | 247 | 3.2 | 11.3 | 0.00 | 0.00 | 0.00 | 55 | 1016.2 |
| 20260503182020 | 22 | 306 | 3.2 | 11.3 | 0.00 | 0.00 | 0.00 | 56 | 1016.3 |
| 20260503181612 | 22 | 268 | 3.2 | 12.9 | 0.00 | 0.00 | 0.00 | 54 | 1016.3 |
| 20260503181021 | 22 | 212 | 6.4 | 12.9 | 0.00 | 0.00 | 0.00 | 54 | 1016.4 |
| 20260503180523 | 22 | 248 | 8.0 | 12.9 | 0.00 | 0.00 | 0.00 | 55 | 1016.3 |
| 20260503180040 | 22 | 234 | 1.6 | 9.7 | 0.00 | 0.00 | 0.00 | 55 | 1016.4 |
| 20260503175519 | 22 | 314 | 3.2 | 8.0 | 0.00 | 0.00 | 0.00 | 56 | 1016.3 |
| 20260503175020 | 22 | 219 | 1.6 | 11.3 | 0.00 | 0.00 | 0.00 | 55 | 1016.4 |
| 20260503174537 | 22 | 192 | 4.8 | 11.3 | 0.00 | 0.00 | 0.00 | 57 | 1016.4 |
| 20260503174020 | 22 | 288 | 1.6 | 8.0 | 0.00 | 0.00 | 0.00 | 58 | 1016.3 |
| 20260503173519 | 21 | 192 | 0.0 | 14.5 | 0.00 | 0.00 | 0.00 | 59 | 1016.4 |
| 20260503173051 | 21 | 329 | 3.2 | 14.5 | 0.00 | 0.00 | 0.00 | 61 | 1016.4 |
| 20260503172519 | 21 | 265 | 6.4 | 11.3 | 0.00 | 0.00 | 0.00 | 58 | 1016.5 |
| 20260503172022 | 21 | 267 | 3.2 | 11.3 | 0.00 | 0.00 | 0.00 | 59 | 1016.5 |
| 20260503171536 | 21 | 265 | 4.8 | 11.3 | 0.00 | 0.00 | 0.00 | 58 | 1016.5 |
| 20260503171019 | 21 | 259 | 3.2 | 11.3 | 0.00 | 0.00 | 0.00 | 58 | 1016.5 |
| 20260503170521 | 21 | 0 | 1.6 | 9.7 | 0.00 | 0.00 | 0.00 | 59 | 1016.5 |
| 20260503150520 | 18 | 0 | 0.0 | 1.6 | 0.00 | 0.00 | 0.00 | 70 | 1016.9 |
| 20260503131016 | 11 | 0 | 0.0 | 1.6 | 0.00 | 0.00 | 0.00 | 88 | 1016.8 |
| 20260503130518 | 11 | 0 | 0.0 | 1.6 | 0.00 | 0.00 | 0.00 | 88 | 1016.7 |
| 20260503110519 | 12 | 0 | 0.0 | 0.0 | 0.00 | 0.00 | 0.00 | 88 | 1017.0 |
| 20260503081536 | 14 | 0 | 0.0 | 0.0 | 0.00 | 0.00 | 0.00 | 76 | 1017.4 |
| 20260503081018 | 14 | 0 | 0.0 | 0.0 | 0.00 | 0.00 | 0.00 | 75 | 1017.4 |
| 20260503080518 | 14 | 0 | 0.0 | 0.0 | 0.00 | 0.00 | 0.00 | 74 | 1017.4 |
| 20260503072517 | 15 | 0 | 0.0 | 1.6 | 0.00 | 0.00 | 0.00 | 68 | 1017.3 |
| 20260503072016 | 16 | 39 | 0.0 | 1.6 | 0.00 | 0.00 | 0.00 | 65 | 1017.3 |
| 20260503071535 | 16 | 0 | 0.0 | 1.6 | 0.00 | 0.00 | 0.00 | 63 | 1017.4 |
| 20260503071016 | 16 | 0 | 0.0 | 1.6 | 0.00 | 0.00 | 0.00 | 62 | 1017.4 |
| 20260503070517 | 16 | 0 | 0.0 | 3.2 | 0.00 | 0.00 | 0.00 | 61 | 1017.4 |
| 20260503055016 | 17 | 0 | 0.0 | 3.2 | 0.00 | 0.00 | 0.00 | 59 | 1017.2 |
| 20260503054532 | 17 | 0 | 0.0 | 3.2 | 0.00 | 0.00 | 0.00 | 59 | 1017.1 |
| 20260503054019 | 17 | 57 | 0.0 | 3.2 | 0.00 | 0.00 | 0.00 | 59 | 1017.0 |
| 20260503053518 | 17 | 0 | 0.0 | 3.2 | 0.00 | 0.00 | 0.00 | 59 | 1017.0 |
| 20260503053040 | 17 | 0 | 0.0 | 3.2 | 0.00 | 0.00 | 0.00 | 59 | 1017.1 |
| 20260503052526 | 17 | 0 | 0.0 | 3.2 | 0.00 | 0.00 | 0.00 | 59 | 1017.0 |
| 20260503052017 | 17 | 0 | 0.0 | 3.2 | 0.00 | 0.00 | 0.00 | 58 | 1017.0 |
| 20260503051536 | 18 | 0 | 0.0 | 3.2 | 0.00 | 0.00 | 0.00 | 59 | 1017.0 |
| 20260503051018 | 18 | 0 | 0.0 | 4.8 | 0.00 | 0.00 | 0.00 | 58 | 1017.0 |
| 20260503050517 | 18 | 0 | 0.0 | 4.8 | 0.00 | 0.00 | 0.00 | 59 | 1017.0 |
| 20260503050036 | 18 | 74 | 1.6 | 4.8 | 0.00 | 0.00 | 0.00 | 61 | 1017.0 |
| 20260503045517 | 18 | 0 | 0.0 | 4.8 | 0.00 | 0.00 | 0.00 | 61 | 1016.9 |
| 20260503045017 | 18 | 0 | 0.0 | 3.2 | 0.00 | 0.00 | 0.00 | 61 | 1016.9 |
| 20260503044603 | 18 | 0 | 0.0 | 1.6 | 0.00 | 0.00 | 0.00 | 60 | 1016.8 |
| 20260503044018 | 18 | 0 | 0.0 | 1.6 | 0.00 | 0.00 | 0.00 | 59 | 1016.7 |
| 20260503043517 | 18 | 0 | 0.0 | 4.8 | 0.00 | 0.00 | 0.00 | 58 | 1016.7 |
| 20260503043030 | 18 | 0 | 0.0 | 4.8 | 0.00 | 0.00 | 0.00 | 58 | 1016.7 |
| 20260503042517 | 19 | 82 | 1.6 | 4.8 | 0.00 | 0.00 | 0.00 | 58 | 1016.7 |
| 20260503042019 | 19 | 0 | 0.0 | 6.4 | 0.00 | 0.00 | 0.00 | 58 | 1016.7 |
| 20260503041536 | 19 | 0 | 0.0 | 6.4 | 0.00 | 0.00 | 0.00 | 57 | 1016.7 |
| 20260503041020 | 19 | 0 | 1.6 | 6.4 | 0.00 | 0.00 | 0.00 | 60 | 1016.5 |
| 20260503040517 | 19 | 0 | 1.6 | 9.7 | 0.00 | 0.00 | 0.00 | 60 | 1016.4 |
| 20260503040031 | 19 | 9 | 0.0 | 9.7 | 0.00 | 0.00 | 0.00 | 62 | 1016.5 |
| 20260503035517 | 19 | 0 | 0.0 | 8.0 | 0.00 | 0.00 | 0.00 | 61 | 1016.3 |
| 20260503035018 | 19 | 66 | 1.6 | 6.4 | 0.00 | 0.00 | 0.00 | 64 | 1016.3 |
| 20260503034535 | 19 | 0 | 0.0 | 9.7 | 0.00 | 0.00 | 0.00 | 63 | 1016.3 |
| 20260503034017 | 20 | 0 | 0.0 | 9.7 | 0.00 | 0.00 | 0.00 | 64 | 1016.2 |
| 20260503033518 | 19 | 57 | 0.0 | 9.7 | 0.00 | 0.00 | 0.00 | 62 | 1016.1 |
| 20260503033037 | 20 | 292 | 0.0 | 3.2 | 0.00 | 0.00 | 0.00 | 63 | 1016.2 |
| 20260503032517 | 20 | 292 | 0.0 | 3.2 | 0.00 | 0.00 | 0.00 | 62 | 1016.1 |
| 20260503032017 | 20 | 0 | 0.0 | 3.2 | 0.00 | 0.00 | 0.00 | 61 | 1016.0 |
| 20260503031530 | 21 | 0 | 0.0 | 3.2 | 0.00 | 0.00 | 0.00 | 60 | 1016.0 |
| 20260503031018 | 21 | 0 | 0.0 | 3.2 | 0.00 | 0.00 | 0.00 | 59 | 1015.9 |
| 20260503030518 | 21 | 0 | 0.0 | 1.6 | 0.00 | 0.00 | 0.00 | 58 | 1015.8 |
| 20260503030035 | 21 | 0 | 0.0 | 6.4 | 0.00 | 0.00 | 0.00 | 57 | 1015.7 |
| 20260503025517 | 21 | 0 | 0.0 | 6.4 | 0.00 | 0.00 | 0.00 | 56 | 1015.7 |
| 20260503025017 | 22 | 0 | 0.0 | 4.8 | 0.00 | 0.00 | 0.00 | 56 | 1015.7 |
| 20260503024532 | 22 | 0 | 0.0 | 6.4 | 0.00 | 0.00 | 0.00 | 55 | 1015.7 |
| 20260503024017 | 22 | 0 | 1.6 | 6.4 | 0.00 | 0.00 | 0.00 | 54 | 1015.6 |
| 20260503023521 | 22 | 0 | 0.0 | 6.4 | 0.00 | 0.00 | 0.00 | 54 | 1015.6 |
| 20260503023040 | 22 | 299 | 0.0 | 6.4 | 0.00 | 0.00 | 0.00 | 54 | 1015.6 |
| 20260503022517 | 22 | 238 | 0.0 | 11.3 | 0.00 | 0.00 | 0.00 | 54 | 1015.5 |
| 20260503022022 | 22 | 287 | 1.6 | 11.3 | 0.00 | 0.00 | 0.00 | 54 | 1015.5 |
| 20260503021532 | 22 | 0 | 1.6 | 6.4 | 0.00 | 0.00 | 0.00 | 53 | 1015.5 |
| 20260503021025 | 23 | 267 | 0.0 | 14.5 | 0.00 | 0.00 | 0.00 | 52 | 1015.4 |
| 20260503020522 | 23 | 49 | 1.6 | 14.5 | 0.00 | 0.00 | 0.00 | 52 | 1015.5 |
| 20260503020036 | 23 | 0 | 1.6 | 14.5 | 0.00 | 0.00 | 0.00 | 50 | 1015.5 |
| 20260503015517 | 23 | 217 | 0.0 | 11.3 | 0.00 | 0.00 | 0.00 | 50 | 1015.6 |
| 20260503015020 | 24 | 43 | 1.6 | 11.3 | 0.00 | 0.00 | 0.00 | 48 | 1015.5 |
| 20260503014543 | 24 | 0 | 0.0 | 9.7 | 0.00 | 0.00 | 0.00 | 49 | 1015.5 |
| 20260503014017 | 24 | 0 | 1.6 | 9.7 | 0.00 | 0.00 | 0.00 | 49 | 1015.6 |
| 20260503013518 | 24 | 307 | 3.2 | 9.7 | 0.00 | 0.00 | 0.00 | 49 | 1015.5 |
| 20260503013032 | 24 | 0 | 0.0 | 8.0 | 0.00 | 0.00 | 0.00 | 48 | 1015.6 |
| 20260503012520 | 24 | 21 | 1.6 | 8.0 | 0.00 | 0.00 | 0.00 | 47 | 1015.6 |
| 20260503012018 | 24 | 257 | 1.6 | 6.4 | 0.00 | 0.00 | 0.00 | 47 | 1015.6 |
| 20260503011534 | 24 | 246 | 1.6 | 8.0 | 0.00 | 0.00 | 0.00 | 48 | 1015.6 |
| 20260503011017 | 25 | 333 | 1.6 | 8.0 | 0.00 | 0.00 | 0.00 | 47 | 1015.7 |
| 20260503010517 | 25 | 318 | 1.6 | 6.4 | 0.00 | 0.00 | 0.00 | 47 | 1015.6 |
| 20260503010034 | 25 | 0 | 0.0 | 6.4 | 0.00 | 0.00 | 0.00 | 47 | 1015.6 |
| 20260503005518 | 25 | 324 | 0.0 | 8.0 | 0.00 | 0.00 | 0.00 | 48 | 1015.7 |
| 20260503005019 | 25 | 276 | 1.6 | 8.0 | 0.00 | 0.00 | 0.00 | 50 | 1015.6 |
| 20260503004530 | 25 | 256 | 3.2 | 16.1 | 0.00 | 0.00 | 0.00 | 49 | 1015.7 |
| 20260503004017 | 24 | 69 | 4.8 | 16.1 | 0.00 | 0.00 | 0.00 | 50 | 1015.6 |
| 20260503003517 | 24 | 334 | 3.2 | 14.5 | 0.00 | 0.00 | 0.00 | 49 | 1015.7 |
| 20260503003035 | 25 | 5 | 3.2 | 12.9 | 0.00 | 0.00 | 0.00 | 49 | 1015.6 |
| 20260503002517 | 25 | 42 | 1.6 | 11.3 | 0.00 | 0.00 | 0.00 | 48 | 1015.6 |
| 20260503002017 | 25 | 288 | 1.6 | 11.3 | 0.00 | 0.00 | 0.00 | 49 | 1015.6 |
| 20260503001544 | 25 | 311 | 1.6 | 11.3 | 0.00 | 0.00 | 0.00 | 49 | 1015.6 |
| 20260503001017 | 25 | 243 | 1.6 | 12.9 | 0.00 | 0.00 | 0.00 | 49 | 1015.6 |
| 20260503000518 | 25 | 293 | 3.2 | 12.9 | 0.00 | 0.00 | 0.00 | 50 | 1015.7 |
| 20260503000045 | 25 | 304 | 3.2 | 12.9 | 0.00 | 0.00 | 0.00 | 50 | 1015.7 |
| 20260502235517 | 24 | 234 | 3.2 | 12.9 | 0.00 | 0.00 | 0.00 | 50 | 1015.7 |
| 20260502235018 | 24 | 313 | 3.2 | 11.3 | 0.00 | 0.00 | 0.00 | 50 | 1015.8 |
| 20260502234548 | 24 | 317 | 1.6 | 11.3 | 0.00 | 0.00 | 0.00 | 50 | 1015.8 |
| 20260502234017 | 25 | 258 | 3.2 | 12.9 | 0.00 | 0.00 | 0.00 | 49 | 1015.9 |
| 20260502233517 | 25 | 227 | 0.0 | 14.5 | 0.00 | 0.00 | 0.00 | 51 | 1015.9 |
| 20260502233030 | 24 | 244 | 4.8 | 14.5 | 0.00 | 0.00 | 0.00 | 50 | 1016.0 |
| 20260502232517 | 24 | 311 | 3.2 | 17.7 | 0.00 | 0.00 | 0.00 | 52 | 1016.1 |
| 20260502232019 | 24 | 85 | 3.2 | 17.7 | 0.00 | 0.00 | 0.00 | 52 | 1016.2 |
| 20260502231532 | 24 | 84 | 3.2 | 16.1 | 0.00 | 0.00 | 0.00 | 52 | 1016.3 |
| 20260502231020 | 24 | 166 | 4.8 | 16.1 | 0.00 | 0.00 | 0.00 | 53 | 1016.2 |
| 20260502230518 | 24 | 275 | 4.8 | 12.9 | 0.00 | 0.00 | 0.00 | 51 | 1016.3 |
| 20260502230035 | 24 | 231 | 3.2 | 12.9 | 0.00 | 0.00 | 0.00 | 52 | 1016.4 |
| 20260502225518 | 24 | 286 | 3.2 | 11.3 | 0.00 | 0.00 | 0.00 | 52 | 1016.5 |
| 20260502225017 | 24 | 208 | 3.2 | 17.7 | 0.00 | 0.00 | 0.00 | 51 | 1016.6 |
| 20260502224535 | 25 | 157 | 3.2 | 17.7 | 0.00 | 0.00 | 0.00 | 52 | 1016.7 |
| 20260502224019 | 24 | 0 | 8.0 | 17.7 | 0.00 | 0.00 | 0.00 | 52 | 1016.7 |
| 20260502223517 | 24 | 282 | 3.2 | 16.1 | 0.00 | 0.00 | 0.00 | 51 | 1016.7 |
| 20260502223038 | 24 | 0 | 0.0 | 16.1 | 0.00 | 0.00 | 0.00 | 52 | 1016.8 |
| 20260502222517 | 24 | 244 | 3.2 | 16.1 | 0.00 | 0.00 | 0.00 | 51 | 1016.8 |
| 20260502222017 | 24 | 327 | 3.2 | 11.3 | 0.00 | 0.00 | 0.00 | 51 | 1016.8 |
| 20260502221536 | 25 | 0 | 3.2 | 12.9 | 0.00 | 0.00 | 0.00 | 52 | 1016.9 |
| 20260502221018 | 25 | 325 | 3.2 | 12.9 | 0.00 | 0.00 | 0.00 | 50 | 1016.8 |
| 20260502220518 | 24 | 225 | 1.6 | 14.5 | 0.00 | 0.00 | 0.00 | 53 | 1016.8 |
| 20260502220039 | 24 | 330 | 8.0 | 14.5 | 0.00 | 0.00 | 0.00 | 52 | 1016.9 |
| 20260502215517 | 24 | 282 | 3.2 | 11.3 | 0.00 | 0.00 | 0.00 | 54 | 1017.0 |
| 20260502215018 | 23 | 305 | 3.2 | 14.5 | 0.00 | 0.00 | 0.00 | 54 | 1017.1 |
| 20260502214545 | 23 | 286 | 1.6 | 14.5 | 0.00 | 0.00 | 0.00 | 53 | 1017.1 |
| 20260502214019 | 23 | 260 | 3.2 | 14.5 | 0.00 | 0.00 | 0.00 | 53 | 1017.1 |
| 20260502213517 | 23 | 225 | 1.6 | 17.7 | 0.00 | 0.00 | 0.00 | 55 | 1017.1 |
| 20260502213039 | 23 | 261 | 3.2 | 17.7 | 0.00 | 0.00 | 0.00 | 54 | 1017.3 |
| 20260502212517 | 23 | 225 | 8.0 | 17.7 | 0.00 | 0.00 | 0.00 | 53 | 1017.3 |
| 20260502212017 | 23 | 208 | 4.8 | 17.7 | 0.00 | 0.00 | 0.00 | 54 | 1017.3 |
| 20260502211535 | 23 | 265 | 4.8 | 17.7 | 0.00 | 0.00 | 0.00 | 54 | 1017.3 |